sensor_id;sensor_type;location;lat;lon;timestamp;pressure;altitude;pressure_sealevel;temperature;humidity
15817;BME280;8009;50.070;8.232;2023-01-01T00:02:09;100044.88;;;10.55;77.50
15817;BME280;8009;50.070;8.232;2023-01-01T00:04:37;100045.31;;;10.49;78.06
15817;BME280;8009;50.070;8.232;2023-01-01T00:07:06;100039.63;;;10.41;78.24
15817;BME280;8009;50.070;8.232;2023-01-01T00:09:35;100036.72;;;10.44;77.81
15817;BME280;8009;50.070;8.232;2023-01-01T00:28:30;100035.78;;;10.32;78.79
15817;BME280;8009;50.070;8.232;2023-01-01T00:30:59;100042.72;;;10.23;79.16
15817;BME280;8009;50.070;8.232;2023-01-01T00:33:27;100044.97;;;10.30;78.67
15817;BME280;8009;50.070;8.232;2023-01-01T00:36:09;100039.09;;;10.12;78.87
15817;BME280;8009;50.070;8.232;2023-01-01T00:38:39;100032.13;;;10.20;78.59
15817;BME280;8009;50.070;8.232;2023-01-01T00:47:53;100035.78;;;10.32;78.20
15817;BME280;8009;50.070;8.232;2023-01-01T00:50:22;100032.88;;;10.22;78.44
15817;BME280;8009;50.070;8.232;2023-01-01T00:52:54;100028.69;;;10.31;78.24
15817;BME280;8009;50.070;8.232;2023-01-01T00:55:22;100034.53;;;10.25;78.97
15817;BME280;8009;50.070;8.232;2023-01-01T00:57:51;100031.84;;;10.12;78.55
15817;BME280;8009;50.070;8.232;2023-01-01T01:00:20;100020.25;;;10.23;78.35
15817;BME280;8009;50.070;8.232;2023-01-01T01:02:49;100020.94;;;10.14;79.09
15817;BME280;8009;50.070;8.232;2023-01-01T01:05:21;100019.22;;;10.13;78.75
15817;BME280;8009;50.070;8.232;2023-01-01T01:11:11;100024.25;;;10.17;79.12
15817;BME280;8009;50.070;8.232;2023-01-01T01:13:41;100019.56;;;9.95;79.17
15817;BME280;8009;50.070;8.232;2023-01-01T01:16:18;100026.50;;;9.87;79.42
15817;BME280;8009;50.070;8.232;2023-01-01T01:18:51;100020.03;;;9.89;79.71
15817;BME280;8009;50.070;8.232;2023-01-01T01:21:43;100027.28;;;9.76;80.17
15817;BME280;8009;50.070;8.232;2023-01-01T01:24:13;100020.81;;;9.79;80.49
15817;BME280;8009;50.070;8.232;2023-01-01T01:26:47;100024.75;;;9.98;79.43
15817;BME280;8009;50.070;8.232;2023-01-01T01:29:15;100013.00;;;9.87;79.35
15817;BME280;8009;50.070;8.232;2023-01-01T01:31:44;100013.31;;;9.95;79.96
15817;BME280;8009;50.070;8.232;2023-01-01T01:34:52;100021.84;;;10.01;79.38
15817;BME280;8009;50.070;8.232;2023-01-01T01:40:26;100021.97;;;10.00;79.04
15817;BME280;8009;50.070;8.232;2023-01-01T01:42:56;100023.88;;;9.98;79.38
15817;BME280;8009;50.070;8.232;2023-01-01T01:45:52;100025.03;;;10.07;78.53
15817;BME280;8009;50.070;8.232;2023-01-01T01:54:56;100045.31;;;10.25;77.84
15817;BME280;8009;50.070;8.232;2023-01-01T01:57:29;100043.63;;;10.11;77.99
15817;BME280;8009;50.070;8.232;2023-01-01T01:59:59;100057.06;;;9.62;79.44
15817;BME280;8009;50.070;8.232;2023-01-01T02:12:26;100088.53;;;9.87;79.45
15817;BME280;8009;50.070;8.232;2023-01-01T02:14:57;100083.13;;;9.61;79.67
15817;BME280;8009;50.070;8.232;2023-01-01T02:33:25;100067.56;;;10.03;78.52
15817;BME280;8009;50.070;8.232;2023-01-01T02:35:57;100083.09;;;9.99;79.17
15817;BME280;8009;50.070;8.232;2023-01-01T02:41:38;100085.63;;;9.90;80.04
15817;BME280;8009;50.070;8.232;2023-01-01T02:44:15;100072.78;;;9.93;79.86
15817;BME280;8009;50.070;8.232;2023-01-01T02:50:07;100074.53;;;9.82;80.51
15817;BME280;8009;50.070;8.232;2023-01-01T02:52:44;100071.38;;;10.00;79.64
15817;BME280;8009;50.070;8.232;2023-01-01T02:55:38;100073.59;;;10.07;79.46
15817;BME280;8009;50.070;8.232;2023-01-01T02:58:15;100080.22;;;9.90;79.90
15817;BME280;8009;50.070;8.232;2023-01-01T03:01:07;100069.94;;;10.08;79.88
15817;BME280;8009;50.070;8.232;2023-01-01T03:03:57;100078.34;;;10.16;79.26
15817;BME280;8009;50.070;8.232;2023-01-01T03:07:01;100085.53;;;9.79;79.84
15817;BME280;8009;50.070;8.232;2023-01-01T03:09:52;100086.56;;;10.01;79.33
15817;BME280;8009;50.070;8.232;2023-01-01T03:12:24;100091.53;;;10.08;79.65
15817;BME280;8009;50.070;8.232;2023-01-01T03:15:11;100081.59;;;10.08;79.19
15817;BME280;8009;50.070;8.232;2023-01-01T03:20:55;100091.44;;;9.96;79.46
15817;BME280;8009;50.070;8.232;2023-01-01T03:30:16;100103.63;;;9.76;80.49
15817;BME280;8009;50.070;8.232;2023-01-01T03:45:36;100117.44;;;9.97;79.90
15817;BME280;8009;50.070;8.232;2023-01-01T03:48:06;100110.78;;;9.77;80.40
15817;BME280;8009;50.070;8.232;2023-01-01T03:50:41;100120.91;;;9.74;80.55
15817;BME280;8009;50.070;8.232;2023-01-01T03:53:19;100118.31;;;9.72;80.75
15817;BME280;8009;50.070;8.232;2023-01-01T03:55:56;100118.81;;;10.03;79.89
15817;BME280;8009;50.070;8.232;2023-01-01T03:58:33;100107.59;;;10.09;79.51
15817;BME280;8009;50.070;8.232;2023-01-01T04:01:13;100107.25;;;10.14;79.54
15817;BME280;8009;50.070;8.232;2023-01-01T04:03:43;100106.84;;;10.07;79.58
15817;BME280;8009;50.070;8.232;2023-01-01T04:06:14;100106.75;;;9.83;80.66
15817;BME280;8009;50.070;8.232;2023-01-01T04:11:55;100107.47;;;10.11;79.68
15817;BME280;8009;50.070;8.232;2023-01-01T04:14:33;100116.25;;;10.01;80.41
15817;BME280;8009;50.070;8.232;2023-01-01T04:20:16;100116.88;;;10.18;80.06
15817;BME280;8009;50.070;8.232;2023-01-01T04:22:45;100100.50;;;10.08;80.45
15817;BME280;8009;50.070;8.232;2023-01-01T04:25:14;100098.25;;;10.52;79.41
15817;BME280;8009;50.070;8.232;2023-01-01T04:27:48;100092.34;;;10.46;79.49
15817;BME280;8009;50.070;8.232;2023-01-01T04:33:28;100103.66;;;10.76;78.60
15817;BME280;8009;50.070;8.232;2023-01-01T04:42:37;100107.69;;;10.70;79.27
15817;BME280;8009;50.070;8.232;2023-01-01T04:45:08;100102.75;;;10.88;78.65
15817;BME280;8009;50.070;8.232;2023-01-01T04:47:51;100100.56;;;10.69;79.57
15817;BME280;8009;50.070;8.232;2023-01-01T04:50:20;100109.28;;;10.96;78.65
15817;BME280;8009;50.070;8.232;2023-01-01T04:52:48;100110.38;;;10.94;78.40
15817;BME280;8009;50.070;8.232;2023-01-01T05:17:54;100131.00;;;10.71;79.23
15817;BME280;8009;50.070;8.232;2023-01-01T05:23:34;100134.41;;;10.62;79.24
15817;BME280;8009;50.070;8.232;2023-01-01T05:26:08;100129.50;;;10.67;78.66
15817;BME280;8009;50.070;8.232;2023-01-01T05:28:37;100135.53;;;10.70;79.02
15817;BME280;8009;50.070;8.232;2023-01-01T05:31:07;100134.06;;;10.66;78.56
15817;BME280;8009;50.070;8.232;2023-01-01T05:43:17;100126.09;;;10.52;78.84
15817;BME280;8009;50.070;8.232;2023-01-01T05:45:46;100124.84;;;10.32;79.24
15817;BME280;8009;50.070;8.232;2023-01-01T05:48:16;100125.72;;;10.33;79.68
15817;BME280;8009;50.070;8.232;2023-01-01T05:50:45;100137.66;;;10.41;79.58
15817;BME280;8009;50.070;8.232;2023-01-01T05:53:13;100134.38;;;10.12;80.07
15817;BME280;8009;50.070;8.232;2023-01-01T05:55:51;100128.75;;;10.15;79.63
15817;BME280;8009;50.070;8.232;2023-01-01T05:58:23;100136.84;;;10.28;79.44
15817;BME280;8009;50.070;8.232;2023-01-01T06:01:07;100142.56;;;10.11;80.16
15817;BME280;8009;50.070;8.232;2023-01-01T06:03:45;100145.59;;;10.19;79.79
15817;BME280;8009;50.070;8.232;2023-01-01T06:06:18;100156.47;;;10.30;79.37
15817;BME280;8009;50.070;8.232;2023-01-01T06:08:57;100157.91;;;9.97;80.38
15817;BME280;8009;50.070;8.232;2023-01-01T06:14:55;100173.88;;;10.00;80.03
15817;BME280;8009;50.070;8.232;2023-01-01T06:17:37;100173.31;;;10.21;79.61
15817;BME280;8009;50.070;8.232;2023-01-01T06:20:06;100170.09;;;9.90;80.18
15817;BME280;8009;50.070;8.232;2023-01-01T06:22:35;100173.13;;;9.86;80.68
15817;BME280;8009;50.070;8.232;2023-01-01T06:28:16;100189.09;;;10.01;79.81
15817;BME280;8009;50.070;8.232;2023-01-01T06:34:16;100201.06;;;10.10;79.00
15817;BME280;8009;50.070;8.232;2023-01-01T06:40:15;100198.56;;;9.94;79.92
15817;BME280;8009;50.070;8.232;2023-01-01T06:45:45;100201.06;;;9.97;79.52
15817;BME280;8009;50.070;8.232;2023-01-01T06:48:15;100186.38;;;10.01;79.23
15817;BME280;8009;50.070;8.232;2023-01-01T06:50:46;100193.16;;;10.07;79.19
15817;BME280;8009;50.070;8.232;2023-01-01T06:53:14;100206.78;;;10.06;79.36
15817;BME280;8009;50.070;8.232;2023-01-01T06:55:47;100218.44;;;9.93;79.98
15817;BME280;8009;50.070;8.232;2023-01-01T06:58:22;100219.94;;;9.97;79.87
15817;BME280;8009;50.070;8.232;2023-01-01T07:00:53;100233.19;;;9.75;80.44
15817;BME280;8009;50.070;8.232;2023-01-01T07:03:21;100227.66;;;9.76;80.75
15817;BME280;8009;50.070;8.232;2023-01-01T07:05:52;100222.06;;;9.80;79.81
15817;BME280;8009;50.070;8.232;2023-01-01T07:08:22;100219.50;;;9.78;79.75
15817;BME280;8009;50.070;8.232;2023-01-01T07:10:50;100227.06;;;9.98;79.63
15817;BME280;8009;50.070;8.232;2023-01-01T07:13:21;100240.81;;;9.68;79.26
15817;BME280;8009;50.070;8.232;2023-01-01T07:15:50;100231.66;;;9.58;80.82
15817;BME280;8009;50.070;8.232;2023-01-01T07:18:18;100232.19;;;9.63;80.67
15817;BME280;8009;50.070;8.232;2023-01-01T07:20:48;100241.69;;;9.29;80.88
15817;BME280;8009;50.070;8.232;2023-01-01T07:23:21;100231.59;;;9.45;80.90
15817;BME280;8009;50.070;8.232;2023-01-01T07:25:51;100248.81;;;9.70;79.92
15817;BME280;8009;50.070;8.232;2023-01-01T07:28:21;100260.94;;;9.50;80.51
15817;BME280;8009;50.070;8.232;2023-01-01T07:30:49;100262.13;;;9.86;79.86
15817;BME280;8009;50.070;8.232;2023-01-01T07:33:19;100270.66;;;9.25;81.45
15817;BME280;8009;50.070;8.232;2023-01-01T07:35:48;100265.59;;;9.61;79.87
15817;BME280;8009;50.070;8.232;2023-01-01T07:38:17;100282.75;;;9.60;80.21
15817;BME280;8009;50.070;8.232;2023-01-01T07:40:48;100278.06;;;9.49;80.40
15817;BME280;8009;50.070;8.232;2023-01-01T07:43:16;100284.47;;;9.61;80.43
15817;BME280;8009;50.070;8.232;2023-01-01T07:45:45;100290.31;;;9.67;79.97
15817;BME280;8009;50.070;8.232;2023-01-01T07:48:14;100287.75;;;9.66;80.43
15817;BME280;8009;50.070;8.232;2023-01-01T07:50:43;100302.50;;;9.60;80.46
15817;BME280;8009;50.070;8.232;2023-01-01T07:53:11;100279.88;;;9.36;80.97
15817;BME280;8009;50.070;8.232;2023-01-01T07:55:40;100261.56;;;9.41;81.50
15817;BME280;8009;50.070;8.232;2023-01-01T07:58:12;100268.13;;;9.76;80.29
15817;BME280;8009;50.070;8.232;2023-01-01T08:00:44;100277.50;;;9.71;80.39
15817;BME280;8009;50.070;8.232;2023-01-01T08:03:13;100272.38;;;9.81;79.84
15817;BME280;8009;50.070;8.232;2023-01-01T08:05:42;100281.13;;;9.57;80.70
15817;BME280;8009;50.070;8.232;2023-01-01T08:08:11;100279.03;;;9.75;79.67
15817;BME280;8009;50.070;8.232;2023-01-01T08:10:41;100277.44;;;9.85;79.72
15817;BME280;8009;50.070;8.232;2023-01-01T08:13:12;100275.91;;;9.81;79.92
15817;BME280;8009;50.070;8.232;2023-01-01T08:15:40;100287.44;;;9.83;79.89
15817;BME280;8009;50.070;8.232;2023-01-01T08:18:08;100278.81;;;9.78;80.29
15817;BME280;8009;50.070;8.232;2023-01-01T08:20:37;100277.50;;;9.71;80.22
15817;BME280;8009;50.070;8.232;2023-01-01T08:23:05;100280.06;;;9.60;81.42
15817;BME280;8009;50.070;8.232;2023-01-01T08:25:33;100280.22;;;9.84;79.87
15817;BME280;8009;50.070;8.232;2023-01-01T08:28:02;100294.22;;;9.76;80.65
15817;BME280;8009;50.070;8.232;2023-01-01T08:30:33;100306.06;;;10.00;80.30
15817;BME280;8009;50.070;8.232;2023-01-01T08:33:01;100303.44;;;9.86;80.89
15817;BME280;8009;50.070;8.232;2023-01-01T08:35:29;100303.03;;;9.92;80.28
15817;BME280;8009;50.070;8.232;2023-01-01T08:37:58;100312.78;;;10.08;79.74
15817;BME280;8009;50.070;8.232;2023-01-01T08:40:26;100315.47;;;10.20;80.22
15817;BME280;8009;50.070;8.232;2023-01-01T08:42:54;100314.56;;;10.34;79.20
15817;BME280;8009;50.070;8.232;2023-01-01T08:45:24;100319.19;;;10.32;79.62
15817;BME280;8009;50.070;8.232;2023-01-01T08:47:54;100311.53;;;10.52;79.52
15817;BME280;8009;50.070;8.232;2023-01-01T08:50:23;100300.94;;;10.48;79.15
15817;BME280;8009;50.070;8.232;2023-01-01T08:52:53;100310.34;;;10.56;78.72
15817;BME280;8009;50.070;8.232;2023-01-01T08:55:22;100313.13;;;10.67;78.84
15817;BME280;8009;50.070;8.232;2023-01-01T08:57:50;100324.69;;;10.43;80.06
15817;BME280;8009;50.070;8.232;2023-01-01T09:00:19;100321.34;;;10.78;78.71
15817;BME280;8009;50.070;8.232;2023-01-01T09:02:47;100334.22;;;10.62;79.35
15817;BME280;8009;50.070;8.232;2023-01-01T09:05:18;100330.75;;;10.60;79.30
15817;BME280;8009;50.070;8.232;2023-01-01T09:07:46;100335.63;;;10.80;78.71
15817;BME280;8009;50.070;8.232;2023-01-01T09:10:15;100339.38;;;10.90;78.69
15817;BME280;8009;50.070;8.232;2023-01-01T09:12:43;100343.69;;;10.93;78.57
15817;BME280;8009;50.070;8.232;2023-01-01T09:15:14;100355.78;;;10.87;78.70
15817;BME280;8009;50.070;8.232;2023-01-01T09:17:43;100351.81;;;10.80;79.15
15817;BME280;8009;50.070;8.232;2023-01-01T09:20:13;100345.13;;;10.73;79.31
15817;BME280;8009;50.070;8.232;2023-01-01T09:22:44;100350.81;;;10.94;79.08
15817;BME280;8009;50.070;8.232;2023-01-01T09:25:12;100334.78;;;11.16;78.21
15817;BME280;8009;50.070;8.232;2023-01-01T09:27:41;100337.56;;;11.28;78.11
15817;BME280;8009;50.070;8.232;2023-01-01T09:30:10;100331.53;;;11.24;77.82
15817;BME280;8009;50.070;8.232;2023-01-01T09:32:39;100344.47;;;11.32;78.03
15817;BME280;8009;50.070;8.232;2023-01-01T09:35:08;100338.63;;;11.38;77.91
15817;BME280;8009;50.070;8.232;2023-01-01T09:37:37;100341.72;;;11.44;77.38
15817;BME280;8009;50.070;8.232;2023-01-01T09:40:20;100348.16;;;11.31;77.99
15817;BME280;8009;50.070;8.232;2023-01-01T09:42:58;100354.94;;;11.49;77.45
15817;BME280;8009;50.070;8.232;2023-01-01T09:45:35;100359.13;;;11.53;77.56
15817;BME280;8009;50.070;8.232;2023-01-01T09:48:08;100348.53;;;11.50;77.64
15817;BME280;8009;50.070;8.232;2023-01-01T09:50:40;100345.72;;;11.52;76.91
15817;BME280;8009;50.070;8.232;2023-01-01T09:53:12;100329.19;;;11.43;77.70
15817;BME280;8009;50.070;8.232;2023-01-01T09:55:48;100337.63;;;11.76;76.28
15817;BME280;8009;50.070;8.232;2023-01-01T09:58:21;100335.56;;;11.79;75.87
15817;BME280;8009;50.070;8.232;2023-01-01T10:00:53;100336.28;;;11.57;77.47
15817;BME280;8009;50.070;8.232;2023-01-01T10:03:34;100337.34;;;11.91;75.86
15817;BME280;8009;50.070;8.232;2023-01-01T10:06:21;100347.81;;;11.96;75.83
15817;BME280;8009;50.070;8.232;2023-01-01T10:12:11;100348.81;;;11.95;75.94
15817;BME280;8009;50.070;8.232;2023-01-01T10:18:13;100343.78;;;12.02;75.99
15817;BME280;8009;50.070;8.232;2023-01-01T10:30:30;100351.84;;;12.14;75.81
15817;BME280;8009;50.070;8.232;2023-01-01T10:32:58;100355.94;;;12.31;74.61
15817;BME280;8009;50.070;8.232;2023-01-01T10:35:33;100345.63;;;12.36;74.83
15817;BME280;8009;50.070;8.232;2023-01-01T10:38:03;100342.53;;;12.30;75.14
15817;BME280;8009;50.070;8.232;2023-01-01T10:40:32;100344.53;;;12.39;74.51
15817;BME280;8009;50.070;8.232;2023-01-01T10:43:02;100339.72;;;12.42;74.32
15817;BME280;8009;50.070;8.232;2023-01-01T10:45:36;100342.31;;;12.33;75.08
15817;BME280;8009;50.070;8.232;2023-01-01T10:48:13;100334.66;;;12.27;75.22
15817;BME280;8009;50.070;8.232;2023-01-01T10:50:43;100340.00;;;12.51;75.08
15817;BME280;8009;50.070;8.232;2023-01-01T10:53:27;100343.22;;;12.56;74.20
15817;BME280;8009;50.070;8.232;2023-01-01T10:56:01;100346.19;;;12.64;74.26
15817;BME280;8009;50.070;8.232;2023-01-01T10:58:34;100346.78;;;12.56;74.62
15817;BME280;8009;50.070;8.232;2023-01-01T11:01:09;100342.84;;;12.60;73.63
15817;BME280;8009;50.070;8.232;2023-01-01T11:03:52;100337.91;;;12.65;73.96
15817;BME280;8009;50.070;8.232;2023-01-01T11:06:23;100321.78;;;12.53;74.48
15817;BME280;8009;50.070;8.232;2023-01-01T11:08:54;100321.28;;;12.36;74.96
15817;BME280;8009;50.070;8.232;2023-01-01T11:11:28;100313.53;;;12.65;73.93
15817;BME280;8009;50.070;8.232;2023-01-01T11:13:58;100312.06;;;12.73;74.32
15817;BME280;8009;50.070;8.232;2023-01-01T11:16:31;100307.88;;;12.68;73.97
15817;BME280;8009;50.070;8.232;2023-01-01T11:19:02;100305.66;;;12.85;74.16
15817;BME280;8009;50.070;8.232;2023-01-01T11:21:32;100305.44;;;12.88;73.60
15817;BME280;8009;50.070;8.232;2023-01-01T11:24:25;100297.28;;;12.77;73.48
15817;BME280;8009;50.070;8.232;2023-01-01T11:27:17;100295.09;;;12.59;74.80
15817;BME280;8009;50.070;8.232;2023-01-01T11:29:46;100287.69;;;12.61;74.36
15817;BME280;8009;50.070;8.232;2023-01-01T11:32:22;100284.34;;;12.69;74.85
15817;BME280;8009;50.070;8.232;2023-01-01T11:34:56;100281.91;;;12.77;74.44
15817;BME280;8009;50.070;8.232;2023-01-01T11:37:28;100284.34;;;12.80;74.11
15817;BME280;8009;50.070;8.232;2023-01-01T11:39:59;100275.25;;;12.81;74.13
15817;BME280;8009;50.070;8.232;2023-01-01T11:42:30;100263.78;;;12.89;73.78
15817;BME280;8009;50.070;8.232;2023-01-01T11:45:03;100264.16;;;12.84;74.57
15817;BME280;8009;50.070;8.232;2023-01-01T11:47:38;100273.38;;;12.93;73.40
15817;BME280;8009;50.070;8.232;2023-01-01T11:50:20;100271.06;;;12.88;74.14
15817;BME280;8009;50.070;8.232;2023-01-01T11:52:51;100277.47;;;12.76;74.97
15817;BME280;8009;50.070;8.232;2023-01-01T11:55:32;100282.13;;;12.85;74.30
15817;BME280;8009;50.070;8.232;2023-01-01T11:58:10;100271.81;;;12.90;74.56
15817;BME280;8009;50.070;8.232;2023-01-01T12:00:41;100285.97;;;12.94;73.97
15817;BME280;8009;50.070;8.232;2023-01-01T12:03:22;100276.72;;;12.97;74.03
15817;BME280;8009;50.070;8.232;2023-01-01T12:05:55;100282.50;;;12.92;74.50
15817;BME280;8009;50.070;8.232;2023-01-01T12:08:32;100287.19;;;13.01;73.71
15817;BME280;8009;50.070;8.232;2023-01-01T12:11:10;100276.22;;;13.03;73.88
15817;BME280;8009;50.070;8.232;2023-01-01T12:13:45;100270.19;;;12.99;73.86
15817;BME280;8009;50.070;8.232;2023-01-01T12:16:19;100275.84;;;13.07;73.69
15817;BME280;8009;50.070;8.232;2023-01-01T12:18:59;100278.41;;;13.20;73.46
15817;BME280;8009;50.070;8.232;2023-01-01T12:21:28;100282.00;;;13.21;73.15
15817;BME280;8009;50.070;8.232;2023-01-01T12:23:58;100284.34;;;13.14;73.54
15817;BME280;8009;50.070;8.232;2023-01-01T12:26:31;100284.09;;;13.17;73.04
15817;BME280;8009;50.070;8.232;2023-01-01T12:29:24;100277.44;;;13.21;72.58
15817;BME280;8009;50.070;8.232;2023-01-01T12:32:02;100272.50;;;13.26;73.21
15817;BME280;8009;50.070;8.232;2023-01-01T12:34:38;100268.19;;;13.24;72.82
15817;BME280;8009;50.070;8.232;2023-01-01T12:37:13;100267.34;;;13.23;72.17
15817;BME280;8009;50.070;8.232;2023-01-01T12:40:07;100260.81;;;13.26;73.05
15817;BME280;8009;50.070;8.232;2023-01-01T12:42:55;100241.97;;;13.24;73.10
15817;BME280;8009;50.070;8.232;2023-01-01T12:48:37;100253.50;;;13.37;72.38
15817;BME280;8009;50.070;8.232;2023-01-01T12:51:25;100251.91;;;13.35;71.92
15817;BME280;8009;50.070;8.232;2023-01-01T12:54:09;100257.69;;;13.41;72.42
15817;BME280;8009;50.070;8.232;2023-01-01T12:56:51;100262.63;;;13.36;72.43
15817;BME280;8009;50.070;8.232;2023-01-01T12:59:24;100253.75;;;13.34;71.99
15817;BME280;8009;50.070;8.232;2023-01-01T13:01:55;100251.50;;;13.51;71.11
15817;BME280;8009;50.070;8.232;2023-01-01T13:04:25;100257.25;;;13.57;70.44
15817;BME280;8009;50.070;8.232;2023-01-01T13:06:59;100255.88;;;13.63;70.43
15817;BME280;8009;50.070;8.232;2023-01-01T13:09:33;100258.84;;;13.60;70.96
15817;BME280;8009;50.070;8.232;2023-01-01T13:12:05;100254.94;;;13.53;71.28
15817;BME280;8009;50.070;8.232;2023-01-01T13:14:37;100256.78;;;13.52;70.79
15817;BME280;8009;50.070;8.232;2023-01-01T13:17:17;100260.09;;;13.56;71.23
15817;BME280;8009;50.070;8.232;2023-01-01T13:19:47;100269.53;;;13.40;71.25
15817;BME280;8009;50.070;8.232;2023-01-01T13:22:38;100261.97;;;13.55;70.74
15817;BME280;8009;50.070;8.232;2023-01-01T13:25:19;100256.03;;;13.50;70.34
15817;BME280;8009;50.070;8.232;2023-01-01T13:28:02;100249.25;;;13.56;70.01
15817;BME280;8009;50.070;8.232;2023-01-01T13:30:48;100248.44;;;13.44;70.06
15817;BME280;8009;50.070;8.232;2023-01-01T13:33:20;100250.97;;;13.57;69.44
15817;BME280;8009;50.070;8.232;2023-01-01T13:38:58;100246.44;;;13.46;70.07
15817;BME280;8009;50.070;8.232;2023-01-01T13:41:39;100256.56;;;13.44;69.95
15817;BME280;8009;50.070;8.232;2023-01-01T13:44:17;100262.13;;;13.20;70.40
15817;BME280;8009;50.070;8.232;2023-01-01T13:46:59;100266.06;;;13.38;69.61
15817;BME280;8009;50.070;8.232;2023-01-01T13:49:42;100261.38;;;13.40;69.75
15817;BME280;8009;50.070;8.232;2023-01-01T13:52:28;100258.94;;;13.37;69.56
15817;BME280;8009;50.070;8.232;2023-01-01T13:55:27;100259.69;;;13.28;70.22
15817;BME280;8009;50.070;8.232;2023-01-01T14:01:38;100245.88;;;13.31;69.79
15817;BME280;8009;50.070;8.232;2023-01-01T14:04:16;100252.66;;;13.37;69.19
15817;BME280;8009;50.070;8.232;2023-01-01T14:06:49;100240.72;;;13.28;69.45
15817;BME280;8009;50.070;8.232;2023-01-01T14:09:20;100258.06;;;13.37;68.74
15817;BME280;8009;50.070;8.232;2023-01-01T14:11:51;100265.59;;;13.33;69.30
15817;BME280;8009;50.070;8.232;2023-01-01T14:14:24;100257.06;;;13.38;68.82
15817;BME280;8009;50.070;8.232;2023-01-01T14:16:55;100259.88;;;13.48;68.41
15817;BME280;8009;50.070;8.232;2023-01-01T14:19:25;100260.59;;;13.50;67.78
15817;BME280;8009;50.070;8.232;2023-01-01T14:21:54;100266.03;;;13.50;68.09
15817;BME280;8009;50.070;8.232;2023-01-01T14:24:23;100262.88;;;13.33;68.56
15817;BME280;8009;50.070;8.232;2023-01-01T14:26:55;100267.41;;;13.44;68.22
15817;BME280;8009;50.070;8.232;2023-01-01T14:29:26;100259.16;;;13.34;68.86
15817;BME280;8009;50.070;8.232;2023-01-01T14:31:57;100259.09;;;13.25;69.03
15817;BME280;8009;50.070;8.232;2023-01-01T14:34:28;100261.53;;;13.28;68.98
15817;BME280;8009;50.070;8.232;2023-01-01T14:36:58;100264.50;;;13.13;69.40
15817;BME280;8009;50.070;8.232;2023-01-01T14:39:28;100261.88;;;13.34;68.21
15817;BME280;8009;50.070;8.232;2023-01-01T14:42:02;100264.72;;;13.44;67.56
15817;BME280;8009;50.070;8.232;2023-01-01T14:44:34;100270.78;;;13.36;68.75
15817;BME280;8009;50.070;8.232;2023-01-01T14:47:03;100260.63;;;13.38;68.13
15817;BME280;8009;50.070;8.232;2023-01-01T14:49:35;100270.91;;;13.24;68.75
15817;BME280;8009;50.070;8.232;2023-01-01T14:52:07;100274.22;;;13.27;68.92
15817;BME280;8009;50.070;8.232;2023-01-01T14:54:37;100265.81;;;13.41;68.22
15817;BME280;8009;50.070;8.232;2023-01-01T14:57:15;100265.56;;;13.45;67.90
15817;BME280;8009;50.070;8.232;2023-01-01T14:59:46;100260.63;;;13.38;67.90
15817;BME280;8009;50.070;8.232;2023-01-01T15:02:21;100275.22;;;13.26;68.43
15817;BME280;8009;50.070;8.232;2023-01-01T15:04:49;100268.69;;;13.29;68.49
15817;BME280;8009;50.070;8.232;2023-01-01T15:07:20;100265.34;;;13.14;69.72
15817;BME280;8009;50.070;8.232;2023-01-01T15:09:49;100273.72;;;13.22;68.09
15817;BME280;8009;50.070;8.232;2023-01-01T15:12:21;100263.28;;;13.29;68.47
15817;BME280;8009;50.070;8.232;2023-01-01T15:14:51;100263.38;;;13.16;69.35
15817;BME280;8009;50.070;8.232;2023-01-01T15:17:22;100266.09;;;13.27;68.58
15817;BME280;8009;50.070;8.232;2023-01-01T15:20:02;100262.13;;;13.31;68.35
15817;BME280;8009;50.070;8.232;2023-01-01T15:22:32;100256.81;;;13.41;68.06
15817;BME280;8009;50.070;8.232;2023-01-01T15:25:04;100262.50;;;13.38;67.82
15817;BME280;8009;50.070;8.232;2023-01-01T15:27:35;100256.81;;;13.41;67.79
15817;BME280;8009;50.070;8.232;2023-01-01T15:30:18;100256.47;;;13.34;68.11
15817;BME280;8009;50.070;8.232;2023-01-01T15:32:52;100262.03;;;13.33;69.03
15817;BME280;8009;50.070;8.232;2023-01-01T15:35:27;100248.94;;;13.38;68.19
15817;BME280;8009;50.070;8.232;2023-01-01T15:37:58;100255.47;;;13.35;68.44
15817;BME280;8009;50.070;8.232;2023-01-01T15:40:31;100255.00;;;13.30;68.73
15817;BME280;8009;50.070;8.232;2023-01-01T15:43:19;100259.31;;;13.33;68.55
15817;BME280;8009;50.070;8.232;2023-01-01T15:45:53;100249.56;;;13.19;69.36
15817;BME280;8009;50.070;8.232;2023-01-01T15:48:28;100249.09;;;13.25;69.15
15817;BME280;8009;50.070;8.232;2023-01-01T15:51:03;100256.72;;;13.31;68.94
15817;BME280;8009;50.070;8.232;2023-01-01T15:53:44;100256.13;;;13.16;70.33
15817;BME280;8009;50.070;8.232;2023-01-01T15:56:14;100264.38;;;13.15;69.11
15817;BME280;8009;50.070;8.232;2023-01-01T15:58:51;100265.13;;;13.06;70.62
15817;BME280;8009;50.070;8.232;2023-01-01T16:01:22;100266.38;;;13.02;72.08
15817;BME280;8009;50.070;8.232;2023-01-01T16:03:57;100259.72;;;13.06;71.00
15817;BME280;8009;50.070;8.232;2023-01-01T16:06:29;100256.63;;;12.99;71.87
15817;BME280;8009;50.070;8.232;2023-01-01T16:08:57;100247.25;;;13.03;71.75
15817;BME280;8009;50.070;8.232;2023-01-01T16:11:26;100254.53;;;13.03;71.66
15817;BME280;8009;50.070;8.232;2023-01-01T16:14:00;100248.88;;;12.95;71.84
15817;BME280;8009;50.070;8.232;2023-01-01T16:16:29;100243.25;;;12.75;73.27
15817;BME280;8009;50.070;8.232;2023-01-01T16:18:58;100247.19;;;12.82;72.17
15817;BME280;8009;50.070;8.232;2023-01-01T16:21:27;100241.63;;;12.84;71.96
15817;BME280;8009;50.070;8.232;2023-01-01T16:23:57;100240.75;;;12.95;71.55
15817;BME280;8009;50.070;8.232;2023-01-01T16:26:25;100240.50;;;12.98;71.29
15817;BME280;8009;50.070;8.232;2023-01-01T16:28:54;100233.34;;;12.97;72.55
15817;BME280;8009;50.070;8.232;2023-01-01T16:31:25;100227.69;;;12.88;72.61
15817;BME280;8009;50.070;8.232;2023-01-01T16:33:58;100229.28;;;12.91;72.39
15817;BME280;8009;50.070;8.232;2023-01-01T16:36:26;100222.28;;;12.88;73.09
15817;BME280;8009;50.070;8.232;2023-01-01T16:38:56;100222.91;;;12.81;73.77
15817;BME280;8009;50.070;8.232;2023-01-01T16:41:26;100217.59;;;12.90;72.75